createdAt,value
2018-09-12T00:00:22.079Z,8.86
2018-09-12T00:01:22.552Z,8.88
2018-09-12T00:02:23.020Z,8.98
2018-09-12T00:03:23.490Z,9.13
2018-09-12T00:04:23.964Z,9.22
2018-09-12T00:05:24.433Z,9.30
2018-09-12T00:06:24.903Z,9.40
2018-09-12T00:07:25.374Z,9.40
2018-09-12T00:08:25.846Z,9.38
2018-09-12T00:09:26.318Z,9.38
2018-09-12T00:10:26.791Z,9.30
2018-09-12T00:11:27.262Z,9.22
2018-09-12T00:12:27.733Z,9.16
2018-09-12T00:13:28.205Z,9.16
2018-09-12T00:14:28.677Z,9.13
2018-09-12T00:15:29.149Z,9.00
2018-09-12T00:16:29.624Z,8.96
2018-09-12T00:17:30.095Z,8.97
2018-09-12T00:18:30.569Z,9.04
2018-09-12T00:19:31.042Z,9.14
2018-09-12T00:20:31.515Z,9.22
2018-09-12T00:21:31.992Z,9.26
2018-09-12T00:22:32.464Z,9.26
2018-09-12T00:23:32.936Z,9.20
2018-09-12T00:24:33.411Z,9.10
2018-09-12T00:25:33.888Z,9.06
2018-09-12T00:26:34.360Z,9.10
2018-09-12T00:27:34.835Z,9.10
2018-09-12T00:28:35.313Z,9.14
2018-09-12T00:29:35.784Z,9.20
2018-09-12T00:30:36.258Z,9.18
2018-09-12T00:31:36.730Z,9.18
2018-09-12T00:32:37.206Z,9.18
2018-09-12T00:33:37.681Z,9.18
2018-09-12T00:34:38.155Z,9.19
2018-09-12T00:35:38.630Z,9.21
2018-09-12T00:36:39.104Z,9.26
2018-09-12T00:37:39.600Z,9.24
2018-09-12T00:38:40.089Z,9.25
2018-09-12T00:39:40.527Z,9.28
2018-09-12T00:40:41.000Z,9.33
2018-09-12T00:41:41.474Z,9.34
2018-09-12T00:42:41.954Z,9.38
2018-09-12T00:43:42.422Z,9.38
2018-09-12T00:44:42.896Z,9.38
2018-09-12T00:45:43.368Z,9.42
2018-09-12T00:46:43.843Z,9.40
2018-09-12T00:47:44.313Z,9.38
2018-09-12T00:48:44.787Z,9.38
2018-09-12T00:49:45.260Z,9.39
2018-09-12T00:50:45.734Z,9.40
2018-09-12T00:51:46.204Z,9.36
2018-09-12T00:52:46.679Z,9.32
2018-09-12T00:53:47.153Z,9.32
2018-09-12T00:54:47.621Z,9.30
2018-09-12T00:55:48.098Z,9.28
2018-09-12T00:56:48.567Z,9.24
2018-09-12T00:57:49.037Z,9.22
2018-09-12T00:58:49.518Z,9.29
2018-09-12T00:59:49.981Z,9.28
2018-09-12T01:00:50.452Z,9.27
2018-09-12T01:01:50.922Z,9.22
2018-09-12T01:02:51.396Z,9.24
2018-09-12T01:03:51.868Z,9.27
2018-09-12T01:04:52.338Z,9.33
2018-09-12T01:05:52.813Z,9.38
2018-09-12T01:06:53.276Z,9.40
2018-09-12T01:07:53.747Z,9.42
2018-09-12T01:08:54.217Z,9.44
2018-09-12T01:09:54.692Z,9.42
2018-09-12T01:10:55.158Z,9.41
2018-09-12T01:11:55.628Z,9.38
2018-09-12T01:12:56.100Z,9.35
2018-09-12T01:13:56.568Z,9.39
2018-09-12T01:14:57.041Z,9.38
2018-09-12T01:15:57.510Z,9.40
2018-09-12T01:16:57.980Z,9.42
2018-09-12T01:17:58.450Z,9.43
2018-09-12T01:18:58.921Z,9.38
2018-09-12T01:19:59.393Z,9.36
2018-09-12T01:20:59.863Z,9.32
2018-09-12T01:22:00.336Z,9.32
2018-09-12T01:23:00.805Z,9.33
2018-09-12T01:24:01.276Z,9.31
2018-09-12T01:25:01.745Z,9.29
2018-09-12T01:26:02.217Z,9.26
2018-09-12T01:27:02.690Z,9.24
2018-09-12T01:28:03.160Z,9.20
2018-09-12T01:29:03.633Z,9.09
2018-09-12T01:30:04.105Z,9.03
2018-09-12T01:31:04.579Z,9.04
2018-09-12T01:32:05.049Z,9.05
2018-09-12T01:33:05.524Z,9.06
2018-09-12T01:34:05.994Z,9.06
2018-09-12T01:35:06.471Z,9.12
2018-09-12T01:36:06.941Z,9.10
2018-09-12T01:37:07.413Z,9.06
2018-09-12T01:38:07.892Z,9.06
2018-09-12T01:39:08.362Z,9.10
2018-09-12T01:40:08.834Z,9.15
2018-09-12T01:41:09.307Z,9.26
2018-09-12T01:42:09.789Z,9.36
2018-09-12T01:43:10.461Z,9.33
2018-09-12T01:44:10.730Z,9.33
2018-09-12T01:45:11.205Z,9.39
2018-09-12T01:46:11.679Z,9.45
2018-09-12T01:47:12.153Z,9.47
2018-09-12T01:48:12.633Z,9.47
2018-09-12T01:49:13.103Z,9.49
2018-09-12T01:50:13.577Z,9.43
2018-09-12T01:51:14.050Z,9.44
2018-09-12T01:52:14.523Z,9.47
2018-09-12T01:53:14.997Z,9.52
2018-09-12T01:54:15.472Z,9.56
2018-09-12T01:55:15.946Z,9.64
2018-09-12T01:56:16.420Z,9.72
2018-09-12T01:57:16.895Z,9.74
2018-09-12T01:58:17.370Z,9.79
2018-09-12T01:59:17.840Z,9.81
2018-09-12T02:00:18.311Z,9.83
2018-09-12T02:01:18.783Z,9.84
2018-09-12T02:02:19.257Z,9.80
2018-09-12T02:03:19.931Z,9.76
2018-09-12T02:04:20.201Z,9.74
2018-09-12T02:05:20.675Z,9.70
2018-09-12T02:06:21.147Z,9.70
2018-09-12T02:07:21.622Z,9.68
2018-09-12T02:08:22.091Z,9.70
2018-09-12T02:09:22.563Z,9.72
2018-09-12T02:10:23.034Z,9.70
2018-09-12T02:11:23.505Z,9.69
2018-09-12T02:12:23.978Z,9.72
2018-09-12T02:13:24.450Z,9.73
2018-09-12T02:14:24.921Z,9.68
2018-09-12T02:15:25.390Z,9.64
2018-09-12T02:16:25.861Z,9.56
2018-09-12T02:17:26.332Z,9.50
2018-09-12T02:18:26.806Z,9.52
2018-09-12T02:19:27.275Z,9.54
2018-09-12T02:20:27.752Z,9.62
2018-09-12T02:21:28.216Z,9.64
2018-09-12T02:22:28.686Z,9.69
2018-09-12T02:23:29.157Z,9.70
2018-09-12T02:24:29.625Z,9.76
2018-09-12T02:25:30.097Z,9.78
2018-09-12T02:26:30.567Z,9.77
2018-09-12T02:27:31.036Z,9.78
2018-09-12T02:28:31.510Z,9.73
2018-09-12T02:29:31.979Z,9.70
2018-09-12T02:30:32.447Z,9.75
2018-09-12T02:31:32.924Z,9.79
2018-09-12T02:32:33.392Z,9.76
2018-09-12T02:33:33.860Z,9.73
2018-09-12T02:34:34.330Z,9.64
2018-09-12T02:35:34.803Z,9.58
2018-09-12T02:36:35.270Z,9.54
2018-09-12T02:37:35.745Z,9.46
2018-09-12T02:38:36.213Z,9.45
2018-09-12T02:39:36.687Z,9.50
2018-09-12T02:40:37.156Z,9.55
2018-09-12T02:41:37.632Z,9.55
2018-09-12T02:42:38.101Z,9.57
2018-09-12T02:43:38.573Z,9.54
2018-09-12T02:44:39.387Z,9.46
2018-09-12T02:45:39.518Z,9.48
2018-09-12T02:46:39.992Z,9.50
2018-09-12T02:47:40.695Z,9.48
2018-09-12T02:48:40.937Z,9.54
2018-09-12T02:49:41.411Z,9.54
2018-09-12T02:50:41.885Z,9.53
2018-09-12T02:51:42.368Z,9.57
2018-09-12T02:52:42.832Z,9.57
2018-09-12T02:53:43.307Z,9.59
2018-09-12T02:54:43.780Z,9.63
2018-09-12T02:55:44.256Z,9.54
2018-09-12T02:56:44.729Z,9.56
2018-09-12T02:57:45.201Z,9.56
2018-09-12T02:58:45.677Z,9.58
2018-09-12T02:59:46.151Z,9.56
2018-09-12T03:00:46.626Z,9.60
2018-09-12T03:01:47.100Z,9.62
2018-09-12T03:02:47.575Z,9.67
2018-09-12T03:03:48.048Z,9.70
2018-09-12T03:04:48.521Z,9.65
2018-09-12T03:05:48.994Z,9.62
2018-09-12T03:06:49.469Z,9.62
2018-09-12T03:07:50.028Z,9.55
2018-09-12T03:08:50.415Z,9.52
2018-09-12T03:09:50.894Z,9.48
2018-09-12T03:10:51.362Z,9.52
2018-09-12T03:11:51.835Z,9.58
2018-09-12T03:12:52.309Z,9.56
2018-09-12T03:13:52.782Z,9.52
2018-09-12T03:14:53.256Z,9.49
2018-09-12T03:15:53.728Z,9.50
2018-09-12T03:16:54.203Z,9.51
2018-09-12T03:17:54.675Z,9.50
2018-09-12T03:18:55.146Z,9.52
2018-09-12T03:19:55.620Z,9.64
2018-09-12T03:20:56.220Z,9.82
2018-09-12T03:21:56.559Z,10.00
2018-09-12T03:22:57.033Z,10.10
2018-09-12T03:23:57.503Z,10.10
2018-09-12T03:24:57.974Z,10.14
2018-09-12T03:25:58.447Z,10.22
2018-09-12T03:26:58.918Z,10.24
2018-09-12T03:27:59.389Z,10.25
2018-09-12T03:28:59.861Z,10.20
2018-09-12T03:30:00.332Z,10.09
2018-09-12T03:31:00.801Z,10.02
2018-09-12T03:32:01.281Z,9.88
2018-09-12T03:33:01.741Z,9.74
2018-09-12T03:34:02.220Z,9.66
2018-09-12T03:35:02.683Z,9.60
2018-09-12T03:36:03.157Z,9.66
2018-09-12T03:37:03.624Z,9.80
2018-09-12T03:38:04.094Z,9.94
2018-09-12T03:39:04.564Z,10.02
2018-09-12T03:40:05.037Z,9.97
2018-09-12T03:41:05.505Z,9.93
2018-09-12T03:42:05.976Z,9.90
2018-09-12T03:43:06.451Z,9.88
2018-09-12T03:44:06.918Z,9.81
2018-09-12T03:45:07.385Z,9.74
2018-09-12T03:46:07.858Z,9.74
2018-09-12T03:47:08.329Z,9.77
2018-09-12T03:48:08.875Z,9.71
2018-09-12T03:49:09.274Z,9.70
2018-09-12T03:50:09.742Z,9.74
2018-09-12T03:51:10.214Z,9.73
2018-09-12T03:52:10.686Z,9.75
2018-09-12T03:53:11.158Z,9.80
2018-09-12T03:54:11.629Z,9.76
2018-09-12T03:55:12.101Z,9.74
2018-09-12T03:56:12.573Z,9.72
2018-09-12T03:57:13.046Z,9.67
2018-09-12T03:58:13.519Z,9.68
2018-09-12T03:59:13.991Z,9.69
2018-09-12T04:00:14.465Z,9.67
2018-09-12T04:01:14.935Z,9.68
2018-09-12T04:02:15.411Z,9.64
2018-09-12T04:03:15.885Z,9.64
2018-09-12T04:04:16.359Z,9.62
2018-09-12T04:05:16.832Z,9.64
2018-09-12T04:06:17.305Z,9.64
2018-09-12T04:07:17.782Z,9.68
2018-09-12T04:08:18.255Z,9.65
2018-09-12T04:09:18.726Z,9.66
2018-09-12T04:10:19.202Z,9.70
2018-09-12T04:11:19.676Z,9.72
2018-09-12T04:12:20.150Z,9.69
2018-09-12T04:13:20.625Z,9.68
2018-09-12T04:14:21.098Z,9.67
2018-09-12T04:15:21.576Z,9.64
2018-09-12T04:16:22.048Z,9.61
2018-09-12T04:17:22.523Z,9.68
2018-09-12T04:18:22.996Z,9.78
2018-09-12T04:19:23.469Z,9.80
2018-09-12T04:20:23.943Z,9.80
2018-09-12T04:21:24.416Z,9.78
2018-09-12T04:22:24.888Z,9.76
2018-09-12T04:23:25.366Z,9.70
2018-09-12T04:24:25.890Z,9.70
2018-09-12T04:25:26.309Z,9.68
2018-09-12T04:26:26.791Z,9.70
2018-09-12T04:27:27.259Z,9.72
2018-09-12T04:28:27.727Z,9.72
2018-09-12T04:29:28.200Z,9.74
2018-09-12T04:30:28.673Z,9.73
2018-09-12T04:31:29.144Z,9.75
2018-09-12T04:32:29.619Z,9.87
2018-09-12T04:33:30.091Z,9.90
2018-09-12T04:34:30.766Z,9.84
2018-09-12T04:35:31.033Z,9.77
2018-09-12T04:36:31.507Z,9.68
2018-09-12T04:37:31.976Z,9.60
2018-09-12T04:38:32.450Z,9.56
2018-09-12T04:39:32.919Z,9.56
2018-09-12T04:40:33.389Z,9.56
2018-09-12T04:41:33.861Z,9.60
2018-09-12T04:42:34.358Z,9.76
2018-09-12T04:43:34.802Z,9.92
2018-09-12T04:44:35.274Z,10.00
2018-09-12T04:45:35.745Z,10.03
2018-09-12T04:46:36.213Z,10.02
2018-09-12T04:47:36.686Z,9.97
2018-09-12T04:48:37.424Z,9.92
2018-09-12T04:49:37.623Z,9.90
2018-09-12T04:50:38.094Z,9.82
2018-09-12T04:51:38.565Z,9.74
2018-09-12T04:52:39.039Z,9.68
2018-09-12T04:53:39.510Z,9.64
2018-09-12T04:54:39.979Z,9.64
2018-09-12T04:55:40.448Z,9.57
2018-09-12T04:56:40.919Z,9.80
2018-09-12T04:57:41.386Z,9.82
2018-09-12T04:58:41.858Z,9.86
2018-09-12T04:59:42.361Z,9.81
2018-09-12T05:01:43.273Z,9.64
2018-09-12T05:02:43.743Z,9.60
2018-09-12T05:03:44.214Z,9.58
2018-09-12T05:04:44.685Z,9.51
2018-09-12T05:05:45.162Z,9.50
2018-09-12T05:06:45.630Z,9.62
2018-09-12T05:07:46.101Z,9.68
2018-09-12T05:08:46.573Z,9.56
2018-09-12T05:09:47.045Z,9.66
2018-09-12T05:10:47.519Z,9.78
2018-09-12T05:11:47.990Z,9.80
2018-09-12T05:12:48.465Z,9.88
2018-09-12T05:13:48.938Z,9.86
2018-09-12T05:14:49.410Z,9.84
2018-09-12T05:15:49.887Z,9.84
2018-09-12T05:16:50.361Z,9.97
2018-09-12T05:17:50.832Z,10.10
2018-09-12T05:18:51.307Z,10.19
2018-09-12T05:19:51.781Z,10.16
2018-09-12T05:20:52.257Z,10.25
2018-09-12T05:21:52.728Z,10.20
2018-09-12T05:22:53.205Z,10.21
2018-09-12T05:23:53.678Z,10.14
2018-09-12T05:24:54.153Z,9.93
2018-09-12T05:25:54.624Z,9.72
2018-09-12T05:26:55.099Z,9.68
2018-09-12T05:27:55.575Z,9.59
2018-09-12T05:28:56.050Z,9.40
2018-09-12T05:29:56.522Z,9.52
2018-09-12T05:30:57.000Z,9.62
2018-09-12T05:31:57.472Z,9.62
2018-09-12T05:32:57.957Z,9.59
2018-09-12T05:33:58.419Z,9.45
2018-09-12T05:34:58.891Z,9.35
2018-09-12T05:35:59.367Z,9.51
2018-09-12T05:36:59.841Z,9.52
2018-09-12T05:38:00.313Z,9.44
2018-09-12T05:39:00.786Z,9.45
2018-09-12T05:40:01.262Z,9.54
2018-09-12T05:41:01.733Z,9.57
2018-09-12T05:42:02.205Z,9.61
2018-09-12T05:43:02.679Z,9.68
2018-09-12T05:44:03.154Z,9.70
2018-09-12T05:45:03.624Z,9.64
2018-09-12T05:46:04.096Z,9.58
2018-09-12T05:47:04.567Z,9.54
2018-09-12T05:48:05.039Z,9.55
2018-09-12T05:49:05.568Z,9.56
2018-09-12T05:50:06.018Z,9.69
2018-09-12T05:51:06.454Z,9.76
2018-09-12T05:52:06.926Z,9.74
2018-09-12T05:53:07.399Z,9.72
2018-09-12T05:54:07.869Z,9.71
2018-09-12T05:55:08.341Z,9.58
2018-09-12T05:56:08.811Z,9.70
2018-09-12T05:57:09.287Z,9.79
2018-09-12T05:58:09.757Z,9.79
2018-09-12T05:59:10.226Z,9.80
2018-09-12T06:00:10.697Z,9.88
2018-09-12T06:01:11.167Z,9.90
2018-09-12T06:02:11.636Z,9.89
2018-09-12T06:03:12.106Z,9.94
2018-09-12T06:04:12.578Z,9.95
2018-09-12T06:05:13.049Z,9.91
2018-09-12T06:06:13.523Z,9.88
2018-09-12T06:07:14.218Z,9.95
2018-09-12T06:08:14.460Z,9.96
2018-09-12T06:09:14.931Z,10.02
2018-09-12T06:10:15.402Z,10.06
2018-09-12T06:11:15.873Z,10.16
2018-09-12T06:12:16.344Z,10.22
2018-09-12T06:13:16.815Z,10.26
2018-09-12T06:14:17.414Z,10.34
2018-09-12T06:15:17.759Z,10.38
2018-09-12T06:16:18.229Z,10.47
2018-09-12T06:17:18.701Z,10.59
2018-09-12T06:18:19.172Z,10.62
2018-09-12T06:19:19.646Z,10.58
2018-09-12T06:20:20.115Z,10.56
2018-09-12T06:21:20.589Z,10.53
2018-09-12T06:22:21.060Z,10.46
2018-09-12T06:24:22.010Z,10.31
2018-09-12T06:25:22.529Z,10.22
2018-09-12T06:26:22.956Z,10.19
2018-09-12T06:27:23.425Z,10.14
2018-09-12T06:28:23.901Z,10.09
2018-09-12T06:29:24.376Z,10.00
2018-09-12T06:30:24.847Z,9.90
2018-09-12T06:31:25.322Z,9.74
2018-09-12T06:32:25.801Z,9.65
2018-09-12T06:33:26.274Z,9.69
2018-09-12T06:34:26.746Z,9.72
2018-09-12T06:35:27.222Z,9.68
2018-09-12T06:36:27.697Z,9.60
2018-09-12T06:37:28.172Z,9.61
2018-09-12T06:38:28.699Z,9.64
2018-09-12T06:39:29.123Z,9.66
2018-09-12T06:40:29.597Z,9.60
2018-09-12T06:41:30.071Z,9.60
2018-09-12T06:42:30.545Z,9.62
2018-09-12T06:43:31.020Z,9.62
2018-09-12T06:44:31.544Z,9.70
2018-09-12T06:45:31.969Z,9.81
2018-09-12T06:46:32.445Z,9.85
2018-09-12T06:47:32.921Z,9.78
2018-09-12T06:48:33.394Z,9.78
2018-09-12T06:49:33.869Z,9.72
2018-09-12T06:50:34.342Z,9.66
2018-09-12T06:51:34.815Z,9.66
2018-09-12T06:52:35.291Z,9.75
2018-09-12T06:53:35.765Z,9.81
2018-09-12T06:54:36.282Z,9.82
2018-09-12T06:55:36.713Z,9.84
2018-09-12T06:56:37.186Z,9.88
2018-09-12T06:57:37.660Z,9.97
2018-09-12T06:58:38.134Z,10.06
2018-09-12T06:59:38.608Z,10.16
2018-09-12T07:00:39.098Z,10.22
2018-09-12T07:01:39.558Z,10.24
2018-09-12T07:02:40.030Z,10.24
2018-09-12T07:03:40.499Z,10.26
2018-09-12T07:04:40.974Z,10.34
2018-09-12T07:05:41.447Z,10.42
2018-09-12T07:06:41.920Z,10.50
2018-09-12T07:07:42.410Z,10.51
2018-09-12T07:08:42.870Z,10.48
2018-09-12T07:09:43.341Z,10.46
2018-09-12T07:10:43.810Z,10.54
2018-09-12T07:11:44.286Z,10.55
2018-09-12T07:12:44.755Z,10.57
2018-09-12T07:13:45.227Z,10.62
2018-09-12T07:14:45.700Z,10.66
2018-09-12T07:15:46.174Z,10.66
2018-09-12T07:16:46.644Z,10.63
2018-09-12T07:17:47.115Z,10.62
2018-09-12T07:18:47.588Z,10.67
2018-09-12T07:19:48.060Z,10.66
2018-09-12T07:20:48.534Z,10.68
2018-09-12T07:21:49.004Z,10.68
2018-09-12T07:22:49.477Z,10.65
2018-09-12T07:23:49.947Z,10.63
2018-09-12T07:24:50.435Z,10.63
2018-09-12T07:25:50.893Z,10.57
2018-09-12T07:26:51.362Z,10.55
2018-09-12T07:27:51.841Z,10.53
2018-09-12T07:28:52.309Z,10.54
2018-09-12T07:29:52.778Z,10.58
2018-09-12T07:30:53.247Z,10.62
2018-09-12T07:31:53.922Z,10.68
2018-09-12T07:32:54.190Z,10.68
2018-09-12T07:33:54.668Z,10.70
2018-09-12T07:34:55.136Z,10.64
2018-09-12T07:35:55.604Z,10.57
2018-09-12T07:36:56.078Z,10.54
2018-09-12T07:37:56.547Z,10.52
2018-09-12T07:38:57.020Z,10.58
2018-09-12T07:39:57.490Z,10.58
2018-09-12T07:40:57.961Z,10.48
2018-09-12T07:41:58.434Z,10.38
2018-09-12T07:42:58.948Z,10.30
2018-09-12T07:43:59.375Z,10.26
2018-09-12T07:44:59.846Z,10.32
2018-09-12T07:46:00.319Z,10.36
2018-09-12T07:47:00.789Z,10.36
2018-09-12T07:48:01.265Z,10.40
2018-09-12T07:49:01.755Z,10.42
2018-09-12T07:50:02.204Z,10.37
2018-09-12T07:51:02.877Z,10.35
2018-09-12T07:52:03.148Z,10.37
2018-09-12T07:53:03.619Z,10.44
2018-09-12T07:54:04.091Z,10.51
2018-09-12T07:55:04.614Z,10.58
2018-09-12T07:56:05.096Z,10.65
2018-09-12T07:57:05.510Z,10.67
2018-09-12T07:58:05.983Z,10.64
2018-09-12T07:59:06.456Z,10.64
2018-09-12T08:00:06.943Z,10.74
2018-09-12T08:01:07.455Z,10.80
2018-09-12T08:02:07.879Z,10.67
2018-09-12T08:03:08.353Z,10.41
2018-09-12T08:04:08.830Z,10.20
2018-09-12T08:05:09.372Z,10.00
2018-09-12T08:06:09.834Z,9.90
2018-09-12T08:07:10.259Z,9.79
2018-09-12T08:08:10.737Z,9.71
2018-09-12T08:09:11.215Z,9.68
2018-09-12T08:10:11.694Z,9.72
2018-09-12T08:11:12.173Z,9.76
2018-09-12T08:12:12.717Z,9.75
2018-09-12T08:13:13.133Z,9.73
2018-09-12T08:14:13.614Z,9.74
2018-09-12T08:15:14.093Z,9.80
2018-09-12T08:16:14.576Z,9.81
2018-09-12T08:17:15.107Z,9.79
2018-09-12T08:18:15.544Z,9.74
2018-09-12T08:19:16.023Z,9.82
2018-09-12T08:20:16.506Z,9.93
2018-09-12T08:21:16.989Z,10.10
2018-09-12T08:22:17.473Z,10.28
2018-09-12T08:23:17.954Z,10.50
2018-09-12T08:24:18.438Z,10.62
2018-09-12T08:25:18.920Z,10.56
2018-09-12T08:26:19.522Z,10.46
2018-09-12T08:27:19.887Z,10.44
2018-09-12T08:28:20.364Z,10.42
2018-09-12T08:29:20.845Z,10.48
2018-09-12T08:30:21.327Z,10.58
2018-09-12T08:31:21.810Z,10.62
2018-09-12T08:32:22.285Z,10.67
2018-09-12T08:33:22.767Z,10.70
2018-09-12T08:34:23.240Z,10.74
2018-09-12T08:35:23.716Z,10.86
2018-09-12T08:36:24.256Z,10.94
2018-09-12T08:37:24.672Z,11.06
2018-09-12T08:38:25.148Z,11.11
2018-09-12T08:39:25.623Z,11.12
2018-09-12T08:40:26.100Z,11.10
2018-09-12T08:41:26.575Z,11.08
2018-09-12T08:42:27.065Z,11.10
2018-09-12T08:43:27.525Z,11.16
2018-09-12T08:44:28.003Z,11.27
2018-09-12T08:45:28.475Z,11.36
2018-09-12T08:46:29.001Z,11.41
2018-09-12T08:47:29.511Z,11.50
2018-09-12T08:48:29.979Z,11.67
2018-09-12T08:49:30.461Z,11.84
2018-09-12T08:50:30.876Z,11.96
2018-09-12T08:51:31.408Z,12.02
2018-09-12T08:52:31.830Z,12.01
2018-09-12T08:53:32.324Z,12.03
2018-09-12T08:54:33.019Z,11.98
2018-09-12T08:55:33.278Z,11.91
2018-09-12T08:56:33.781Z,11.92
2018-09-12T08:57:34.182Z,11.97
2018-09-12T08:58:34.837Z,11.93
2018-09-12T08:59:35.147Z,11.90
2018-09-12T09:00:35.630Z,11.92
2018-09-12T09:01:36.127Z,11.97
2018-09-12T09:02:36.600Z,12.11
2018-09-12T09:03:37.241Z,12.20
2018-09-12T09:04:37.734Z,12.35
2018-09-12T09:05:38.143Z,12.42
2018-09-12T09:06:38.554Z,12.34
2018-09-12T09:07:39.118Z,12.26
2018-09-12T09:08:40.037Z,12.20
2018-09-12T09:09:54.281Z,12.26
2018-09-12T09:10:54.589Z,12.32
2018-09-12T09:11:55.063Z,12.18
2018-09-12T09:12:55.563Z,12.12
2018-09-12T09:13:56.019Z,12.14
2018-09-12T09:14:56.521Z,12.20
2018-09-12T09:15:56.983Z,12.26
2018-09-12T09:16:57.527Z,12.40
2018-09-12T09:17:58.226Z,12.34
2018-09-12T09:18:58.384Z,11.99
2018-09-12T09:19:59.197Z,11.77
2018-09-12T09:20:59.332Z,11.49
2018-09-12T09:21:59.772Z,11.26
2018-09-12T09:23:00.228Z,11.16
2018-09-12T09:24:00.725Z,11.08
2018-09-12T09:25:01.198Z,11.00
2018-09-12T09:26:01.653Z,10.94
2018-09-12T09:27:02.175Z,10.91
2018-09-12T09:28:02.613Z,10.92
2018-09-12T09:30:03.586Z,10.87
2018-09-12T09:31:04.040Z,10.89
2018-09-12T09:32:04.497Z,11.04
2018-09-12T09:33:05.180Z,11.13
2018-09-12T09:34:05.472Z,11.18
2018-09-12T09:35:06.204Z,11.27
2018-09-12T09:36:06.386Z,11.36
2018-09-12T09:37:07.072Z,11.30
2018-09-12T09:38:07.322Z,11.28
2018-09-12T09:39:07.805Z,11.26
2018-09-12T09:40:08.280Z,11.20
2018-09-12T09:41:08.864Z,11.04
2018-09-12T09:43:09.699Z,10.83
2018-09-12T09:44:10.199Z,10.67
2018-09-12T09:45:10.862Z,10.62
2018-09-12T09:46:11.142Z,10.71
2018-09-12T09:47:11.691Z,10.99
2018-09-12T09:48:12.237Z,11.03
2018-09-12T09:49:12.538Z,10.70
2018-09-12T09:50:13.010Z,10.45
2018-09-12T09:51:13.499Z,10.36
2018-09-12T09:52:14.040Z,10.30
2018-09-12T09:53:14.467Z,10.44
2018-09-12T09:54:14.893Z,10.64
2018-09-12T09:55:15.379Z,10.77
2018-09-12T09:57:16.304Z,10.58
2018-09-12T09:58:16.826Z,10.65
2018-09-12T09:59:17.274Z,10.53
2018-09-12T10:00:17.951Z,10.36
2018-09-12T10:01:18.263Z,10.34
2018-09-12T10:02:18.734Z,10.50
2018-09-12T10:03:19.185Z,10.68
2018-09-12T10:04:19.633Z,10.56
2018-09-12T10:05:20.096Z,10.46
2018-09-12T10:06:20.588Z,10.41
2018-09-12T10:07:21.115Z,10.41
2018-09-12T10:08:21.529Z,10.50
2018-09-12T10:09:22.043Z,10.36
2018-09-12T10:10:22.704Z,10.30
2018-09-12T10:11:22.959Z,10.40
2018-09-12T10:12:23.641Z,10.54
2018-09-12T10:13:23.924Z,10.52
2018-09-12T10:14:24.363Z,10.50
2018-09-12T10:15:24.856Z,10.73
2018-09-12T10:16:25.410Z,10.96
2018-09-12T10:17:25.793Z,11.16
2018-09-12T10:18:26.274Z,11.34
2018-09-12T10:19:26.735Z,11.19
2018-09-12T10:20:27.221Z,11.04
2018-09-12T10:21:27.714Z,10.74
2018-09-12T10:22:28.149Z,10.69
2018-09-12T10:23:28.635Z,10.64
2018-09-12T10:24:29.335Z,10.66
2018-09-12T10:25:29.590Z,10.72
2018-09-12T10:26:30.272Z,10.94
2018-09-12T10:27:30.580Z,11.14
2018-09-12T10:28:31.031Z,11.25
2018-09-12T10:29:31.469Z,11.32
2018-09-12T10:30:31.960Z,11.37
2018-09-12T10:31:32.425Z,11.44
2018-09-12T10:32:33.005Z,11.46
2018-09-12T10:33:33.383Z,11.44
2018-09-12T10:34:33.891Z,11.28
2018-09-12T10:35:34.332Z,11.12
2018-09-12T10:36:34.822Z,11.06
2018-09-12T10:37:35.526Z,11.01
2018-09-12T10:38:35.762Z,10.96
2018-09-12T10:39:36.199Z,10.91
2018-09-12T10:40:36.719Z,10.85
2018-09-12T10:41:37.172Z,10.77
2018-09-12T10:42:37.749Z,10.84
2018-09-12T10:43:38.370Z,11.04
2018-09-12T10:44:38.604Z,11.14
2018-09-12T10:45:39.079Z,11.12
2018-09-12T10:46:39.567Z,10.95
2018-09-12T10:47:40.070Z,10.76
2018-09-12T10:48:40.512Z,10.86
2018-09-12T10:49:40.967Z,10.97
2018-09-12T10:51:41.931Z,11.38
2018-09-12T10:52:42.503Z,11.46
2018-09-12T10:53:42.892Z,11.40
2018-09-12T10:54:43.357Z,11.38
2018-09-12T10:55:44.008Z,11.34
2018-09-12T10:56:44.501Z,11.22
2018-09-12T10:57:44.752Z,11.20
2018-09-12T10:58:45.249Z,11.24
2018-09-12T10:59:45.734Z,11.30
2018-09-12T11:00:46.208Z,11.30
2018-09-12T11:01:46.686Z,11.34
2018-09-12T11:02:47.198Z,11.39
2018-09-12T11:03:47.824Z,11.37
2018-09-12T11:04:48.119Z,11.46
2018-09-12T11:05:48.551Z,11.52
2018-09-12T11:06:49.069Z,11.57
2018-09-12T11:07:49.581Z,11.70
2018-09-12T11:08:50.128Z,11.90
2018-09-12T11:09:50.498Z,11.84
2018-09-12T11:10:50.954Z,11.56
2018-09-12T11:11:51.824Z,11.46
2018-09-12T11:12:51.878Z,11.31
2018-09-12T11:13:52.411Z,11.11
2018-09-12T11:14:52.868Z,11.02
2018-09-12T11:15:53.660Z,11.14
2018-09-12T11:16:53.821Z,11.22
2018-09-12T11:17:54.310Z,11.30
2018-09-12T11:18:54.747Z,11.22
2018-09-12T11:19:55.225Z,11.35
2018-09-12T11:21:56.192Z,11.56
2018-09-12T11:22:56.710Z,11.64
2018-09-12T11:23:57.214Z,11.60
2018-09-12T11:24:57.613Z,11.46
2018-09-12T11:25:58.087Z,11.22
2018-09-12T11:26:58.568Z,11.12
2018-09-12T11:27:59.092Z,11.11
2018-09-12T11:28:59.716Z,11.10
2018-09-12T11:29:59.966Z,11.13
2018-09-12T11:31:00.517Z,11.02
2018-09-12T11:32:00.941Z,11.00
2018-09-12T11:33:01.719Z,11.12
2018-09-12T11:34:02.104Z,11.24
2018-09-12T11:35:02.577Z,11.38
2018-09-12T11:36:02.873Z,11.44
2018-09-12T11:37:03.357Z,11.42
2018-09-12T11:38:04.001Z,11.49
2018-09-12T11:39:04.273Z,11.55
2018-09-12T11:41:05.227Z,11.48
2018-09-12T11:42:05.707Z,11.51
2018-09-12T11:43:06.241Z,11.62
2018-09-12T11:44:06.672Z,11.58
2018-09-12T11:45:07.134Z,11.66
2018-09-12T11:46:07.617Z,11.74
2018-09-12T11:47:08.111Z,11.87
2018-09-12T11:48:08.960Z,11.98
2018-09-12T11:49:09.103Z,12.12
2018-09-12T11:50:09.504Z,12.17
2018-09-12T11:51:09.990Z,12.23
2018-09-12T11:52:10.470Z,12.23
2018-09-12T11:53:10.989Z,12.12
2018-09-12T11:54:11.424Z,12.00
2018-09-12T11:55:11.961Z,11.93
2018-09-12T11:56:12.403Z,11.90
2018-09-12T11:57:12.844Z,11.88
2018-09-12T11:58:13.383Z,11.88
2018-09-12T11:59:13.809Z,11.86
2018-09-12T12:02:15.252Z,11.70
2018-09-12T12:03:15.787Z,11.92
2018-09-12T12:04:16.181Z,12.26
2018-09-12T12:05:16.683Z,12.57
2018-09-12T12:06:17.145Z,12.90
2018-09-12T12:07:17.593Z,13.12
2018-09-12T12:08:18.108Z,13.28
2018-09-12T12:09:18.569Z,13.50
2018-09-12T12:10:19.248Z,13.78
2018-09-12T12:11:19.526Z,13.96
2018-09-12T12:12:20.059Z,14.06
2018-09-12T12:13:20.555Z,14.21
2018-09-12T12:14:20.948Z,14.03
2018-09-12T12:15:21.644Z,13.87
2018-09-12T12:16:21.947Z,13.83
2018-09-12T12:17:22.392Z,13.81
2018-09-12T12:18:22.870Z,13.77
2018-09-12T12:19:24.318Z,13.66
2018-09-12T12:20:23.829Z,13.60
2018-09-12T12:21:24.357Z,13.36
2018-09-12T12:23:25.309Z,12.95
2018-09-12T12:24:25.713Z,12.94
2018-09-12T12:25:26.241Z,12.84
2018-09-12T12:26:26.877Z,12.82
2018-09-12T12:27:27.237Z,12.97
2018-09-12T12:28:27.644Z,13.18
2018-09-12T12:29:28.120Z,13.43
2018-09-12T12:30:28.615Z,13.67
2018-09-12T12:31:29.077Z,13.41
2018-09-12T12:32:29.541Z,12.64
2018-09-12T12:33:30.007Z,11.92
2018-09-12T12:34:30.564Z,11.83
2018-09-12T12:35:31.095Z,12.06
2018-09-12T12:36:31.473Z,12.24
2018-09-12T12:37:31.939Z,12.56
2018-09-12T12:38:32.489Z,12.69
2018-09-12T12:39:32.915Z,12.82
2018-09-12T12:40:33.394Z,12.95
2018-09-12T12:41:33.857Z,12.96
2018-09-12T12:42:34.339Z,13.14
2018-09-12T12:43:34.861Z,13.11
2018-09-12T12:44:35.298Z,13.16
2018-09-12T12:45:35.799Z,13.42
2018-09-12T12:46:36.246Z,13.56
2018-09-12T12:47:36.721Z,13.70
2018-09-12T12:48:37.603Z,13.98
2018-09-12T12:49:37.692Z,14.18
2018-09-12T12:50:38.195Z,14.29
2018-09-12T12:51:38.641Z,14.42
2018-09-12T12:52:39.110Z,14.55
2018-09-12T12:54:40.075Z,14.34
2018-09-12T12:55:40.754Z,14.16
2018-09-12T12:56:41.041Z,14.01
2018-09-12T12:57:41.502Z,13.83
2018-09-12T12:58:42.037Z,13.82
2018-09-12T12:59:42.452Z,13.96
2018-09-12T13:00:43.215Z,14.09
2018-09-12T13:01:43.425Z,14.18
2018-09-12T13:03:46.084Z,14.40
2018-09-12T13:04:44.886Z,14.33
2018-09-12T13:05:45.593Z,14.18
2018-09-12T13:06:45.807Z,13.92
2018-09-12T13:07:46.305Z,13.78
2018-09-12T13:08:46.803Z,13.78
2018-09-12T13:09:47.384Z,13.88
2018-09-12T13:10:47.741Z,14.04
2018-09-12T13:11:48.228Z,14.10
2018-09-12T13:12:48.944Z,14.05
2018-09-12T13:13:49.229Z,13.85
2018-09-12T13:14:50.076Z,13.56
2018-09-12T13:15:50.163Z,13.49
2018-09-12T13:16:50.638Z,13.45
2018-09-12T13:17:51.161Z,13.25
2018-09-12T13:18:51.578Z,12.97
2018-09-12T13:20:52.548Z,12.74
2018-09-12T13:21:53.359Z,12.55
2018-09-12T13:22:53.721Z,12.54
2018-09-12T13:23:53.977Z,12.59
2018-09-12T13:24:54.467Z,12.78
2018-09-12T13:25:54.952Z,12.91